Time;durP1;ratioP1;P1;durP2;ratioP2;P2;SDS_P1;SDS_P2;PMS_P1;PMS_P2;Temp;Humidity;BMP_temperature;BMP_pressure;BME280_temperature;BME280_humidity;BME280_pressure;Samples;Min_cycle;Max_cycle;Signal;HPM_P1;HPM_P2
2021/04/12 00:02:47;;;;;;;1.00;1.00;;;8.30;99.90;;;;;;5040695;28;20443;-59
2021/04/12 00:05:28;;;;;;;1.30;1.30;;;8.20;99.90;;;;;;5037120;28;20536;-59
2021/04/12 00:08:03;;;;;;;1.90;1.20;;;8.20;99.90;;;;;;5039847;28;20460;-60
2021/04/12 00:10:32;;;;;;;1.13;1.13;;;8.20;99.90;;;;;;5036543;28;20510;-59
2021/04/12 00:13:05;;;;;;;1.23;1.20;;;8.20;99.90;;;;;;5041719;28;20429;-59
2021/04/12 00:16:12;;;;;;;1.40;1.30;;;8.20;99.90;;;;;;5044636;28;20462;-59
2021/04/12 00:18:50;;;;;;;1.30;1.30;;;8.10;99.90;;;;;;5047465;28;20827;-59
2021/04/12 00:21:31;;;;;;;1.37;1.30;;;8.10;99.90;;;;;;5045248;28;20440;-59
2021/04/12 00:24:26;;;;;;;3.40;1.37;;;8.00;99.90;;;;;;5037882;28;20512;-58
2021/04/12 00:27:18;;;;;;;1.13;1.10;;;7.90;99.90;;;;;;5039112;28;20449;-59
2021/04/12 00:29:54;;;;;;;1.00;1.00;;;7.90;99.90;;;;;;5034899;28;20678;-57
2021/04/12 00:32:33;;;;;;;1.10;1.10;;;7.70;99.90;;;;;;5045255;28;20425;-57
2021/04/12 00:35:17;;;;;;;0.93;0.93;;;7.60;99.90;;;;;;5045304;28;20448;-58
2021/04/12 00:37:47;;;;;;;0.90;0.90;;;7.50;99.90;;;;;;5042144;28;20461;-57
2021/04/12 00:40:13;;;;;;;0.80;0.80;;;7.40;99.90;;;;;;5047920;28;20461;-59
2021/04/12 00:42:57;;;;;;;1.20;1.20;;;7.20;99.90;;;;;;5026836;28;20528;-59
2021/04/12 00:45:32;;;;;;;1.00;1.00;;;7.10;99.90;;;;;;5043543;28;20199;-58
2021/04/12 00:48:39;;;;;;;0.97;0.97;;;7.00;99.90;;;;;;5045005;28;20440;-58
2021/04/12 00:51:30;;;;;;;1.20;0.90;;;7.00;99.90;;;;;;5022784;28;20492;-59
2021/04/12 00:53:56;;;;;;;1.00;1.00;;;6.90;99.90;;;;;;5037350;28;20450;-59
2021/04/12 00:56:34;;;;;;;1.00;1.00;;;6.70;99.90;;;;;;5045106;28;20981;-59
2021/04/12 00:59:18;;;;;;;1.10;1.00;;;6.60;99.90;;;;;;5047188;28;20613;-59
2021/04/12 01:01:51;;;;;;;1.00;1.00;;;6.50;99.90;;;;;;5046714;28;20445;-59
2021/04/12 01:04:55;;;;;;;0.80;0.80;;;6.40;99.90;;;;;;5046169;28;20520;-59
2021/04/12 01:07:27;;;;;;;1.00;1.00;;;6.40;99.90;;;;;;5036502;28;20567;-59
2021/04/12 01:10:11;;;;;;;1.67;0.90;;;6.30;99.90;;;;;;5045829;28;20437;-59
2021/04/12 01:12:59;;;;;;;1.03;1.00;;;6.30;99.90;;;;;;5043489;28;20417;-59
2021/04/12 01:15:52;;;;;;;0.83;0.83;;;6.30;99.90;;;;;;5038685;28;20548;-59
2021/04/12 01:18:30;;;;;;;0.93;0.93;;;6.20;99.90;;;;;;5042495;28;20800;-59
2021/04/12 01:21:01;;;;;;;0.90;0.90;;;6.10;99.90;;;;;;5043581;28;20498;-58
2021/04/12 01:23:48;;;;;;;1.10;0.90;;;6.00;99.90;;;;;;5045424;28;20433;-59
2021/04/12 01:26:29;;;;;;;0.90;0.90;;;5.90;99.90;;;;;;5035448;28;20598;-58
2021/04/12 01:29:22;;;;;;;0.93;0.93;;;5.80;99.90;;;;;;5045681;28;20421;-60
2021/04/12 01:32:06;;;;;;;0.90;0.90;;;5.70;99.90;;;;;;5043648;28;20437;-58
2021/04/12 01:35:25;;;;;;;1.27;1.00;;;5.60;99.80;;;;;;5043808;28;20430;-59
2021/04/12 01:38:00;;;;;;;0.90;0.90;;;5.50;99.80;;;;;;4978554;28;20475;-58
2021/04/12 01:40:42;;;;;;;0.80;0.80;;;5.40;99.90;;;;;;4978597;28;20476;-59
2021/04/12 01:43:18;;;;;;;1.50;1.40;;;5.30;99.90;;;;;;5018876;28;20434;-58
2021/04/12 01:45:49;;;;;;;0.90;0.90;;;5.30;99.90;;;;;;5032809;28;20676;-59
2021/04/12 01:48:26;;;;;;;1.00;1.00;;;5.30;99.90;;;;;;5032497;28;20429;-60
2021/04/12 01:51:05;;;;;;;1.33;0.87;;;5.20;99.90;;;;;;5060090;28;20485;-60
2021/04/12 01:53:51;;;;;;;0.90;0.90;;;5.20;99.90;;;;;;5052499;28;20437;-59
2021/04/12 01:56:43;;;;;;;0.90;0.90;;;5.10;99.60;;;;;;5043738;28;20457;-59
2021/04/12 01:59:47;;;;;;;1.20;1.20;;;5.10;99.90;;;;;;5047351;28;20413;-58
2021/04/12 02:02:19;;;;;;;1.27;1.17;;;5.00;99.90;;;;;;5039500;28;20436;-58
2021/04/12 02:05:09;;;;;;;1.10;1.00;;;5.10;99.90;;;;;;5045479;28;20434;-58
2021/04/12 02:07:40;;;;;;;1.00;1.00;;;5.00;99.90;;;;;;5042313;28;20439;-59
2021/04/12 02:10:22;;;;;;;1.20;1.20;;;4.90;99.90;;;;;;5037664;28;20829;-58
2021/04/12 02:13:02;;;;;;;1.10;1.10;;;4.90;99.90;;;;;;5038199;28;20530;-58
2021/04/12 02:15:47;;;;;;;1.20;1.10;;;4.80;99.90;;;;;;5048362;28;20449;-58
2021/04/12 02:18:19;;;;;;;1.10;1.10;;;4.80;99.90;;;;;;5038485;28;20450;-59
2021/04/12 02:21:04;;;;;;;1.13;1.13;;;4.70;99.90;;;;;;5039867;28;20746;-58
2021/04/12 02:24:04;;;;;;;1.00;1.00;;;4.70;99.90;;;;;;5043070;28;20504;-64
2021/04/12 02:26:52;;;;;;;1.13;1.13;;;4.70;99.90;;;;;;5035458;28;20477;-59
2021/04/12 02:29:36;;;;;;;1.10;1.10;;;4.60;99.90;;;;;;5037054;28;20499;-59
2021/04/12 02:32:46;;;;;;;1.30;1.30;;;4.60;99.90;;;;;;5040158;28;20930;-59
2021/04/12 02:35:30;;;;;;;1.30;1.20;;;4.60;99.90;;;;;;5029958;28;20507;-59
2021/04/12 02:38:06;;;;;;;1.40;1.40;;;4.60;99.50;;;;;;5037688;28;20977;-58
2021/04/12 02:41:09;;;;;;;1.00;1.00;;;4.50;98.90;;;;;;5041489;28;20428;-58
2021/04/12 02:43:50;;;;;;;1.30;1.30;;;4.40;97.90;;;;;;5043620;28;21224;-58
2021/04/12 02:46:52;;;;;;;1.20;1.20;;;4.30;98.40;;;;;;5041324;28;20453;-59
2021/04/12 02:49:52;;;;;;;1.10;1.10;;;4.20;98.70;;;;;;5038273;28;20448;-58
2021/04/12 02:52:42;;;;;;;1.47;1.37;;;4.10;99.20;;;;;;5045892;28;20584;-59
2021/04/12 02:55:44;;;;;;;1.97;1.63;;;4.10;99.30;;;;;;5034748;28;20437;-59
2021/04/12 02:58:31;;;;;;;1.87;1.77;;;4.00;99.10;;;;;;5044876;28;20961;-59
2021/04/12 03:01:06;;;;;;;1.70;1.60;;;4.00;99.10;;;;;;5043217;28;20436;-58
2021/04/12 03:03:54;;;;;;;1.53;1.50;;;4.00;99.60;;;;;;5045130;28;21300;-58
2021/04/12 03:06:54;;;;;;;1.90;1.80;;;4.00;99.40;;;;;;5041059;28;20461;-58
2021/04/12 03:09:49;;;;;;;1.70;1.60;;;4.00;99.30;;;;;;5036164;28;21003;-58
2021/04/12 03:12:33;;;;;;;1.70;1.60;;;4.00;99.90;;;;;;5041695;28;20441;-59
2021/04/12 03:15:01;;;;;;;1.80;1.70;;;4.00;99.50;;;;;;5043840;28;20442;-58
2021/04/12 03:18:17;;;;;;;1.43;1.40;;;3.90;98.90;;;;;;5038135;28;20970;-60
2021/04/12 03:20:43;;;;;;;1.53;1.50;;;3.90;98.80;;;;;;4983002;28;20787;-59
2021/04/12 03:23:33;;;;;;;1.40;1.37;;;3.80;99.00;;;;;;4985610;28;20432;-59
2021/04/12 03:26:04;;;;;;;1.50;1.40;;;3.80;99.30;;;;;;5025128;28;20207;-58
2021/04/12 03:28:35;;;;;;;1.30;1.30;;;3.80;99.50;;;;;;5051706;28;20448;-59
2021/04/12 03:31:14;;;;;;;1.20;1.20;;;3.80;99.60;;;;;;5040237;28;20413;-58
2021/04/12 03:34:10;;;;;;;1.40;1.30;;;3.70;99.40;;;;;;5045754;28;20425;-58
2021/04/12 03:36:39;;;;;;;1.40;1.40;;;3.70;99.60;;;;;;5035191;28;20507;-59
2021/04/12 03:39:16;;;;;;;1.37;1.37;;;3.70;98.90;;;;;;5031827;28;20440;-60
2021/04/12 03:42:01;;;;;;;1.30;1.27;;;3.60;99.20;;;;;;5031330;28;20451;-59
2021/04/12 03:45:12;;;;;;;1.40;1.30;;;3.50;99.50;;;;;;5054176;28;21936;-60
2021/04/12 03:47:50;;;;;;;1.20;1.20;;;3.50;99.70;;;;;;5042399;28;20437;-58
2021/04/12 03:50:46;;;;;;;1.13;1.13;;;3.40;99.90;;;;;;5094995;22;20582;-56
2021/04/12 03:53:58;;;;;;;1.13;1.13;;;3.50;99.90;;;;;;5062931;28;20432;-53
2021/04/12 03:56:42;;;;;;;1.20;1.20;;;3.50;99.90;;;;;;5062378;28;20631;-55
2021/04/12 03:59:19;;;;;;;1.43;1.37;;;3.40;99.90;;;;;;5059905;28;20598;-55
2021/04/12 04:02:12;;;;;;;1.13;1.13;;;3.40;99.90;;;;;;5058570;28;20541;-56
2021/04/12 04:05:11;;;;;;;1.27;1.27;;;3.50;99.90;;;;;;5058191;28;20804;-55
2021/04/12 04:07:43;;;;;;;1.10;1.10;;;3.40;99.90;;;;;;5060399;28;20429;-55
2021/04/12 04:10:50;;;;;;;1.10;1.10;;;3.40;99.90;;;;;;5059883;28;20456;-55
2021/04/12 04:13:36;;;;;;;1.20;1.20;;;3.40;99.90;;;;;;5061310;28;20934;-55
2021/04/12 04:16:20;;;;;;;1.23;1.20;;;3.40;99.80;;;;;;5062978;28;20425;-55
2021/04/12 04:19:11;;;;;;;1.40;1.30;;;3.40;99.90;;;;;;5059917;28;20432;-59
2021/04/12 04:22:01;;;;;;;1.37;1.37;;;3.40;99.90;;;;;;5074155;28;20416;-57
2021/04/12 04:24:53;;;;;;;2.00;1.80;;;3.40;99.90;;;;;;5083731;28;20429;-56
2021/04/12 04:27:57;;;;;;;1.63;1.53;;;3.30;99.90;;;;;;5059276;28;20436;-55
2021/04/12 04:30:23;;;;;;;1.60;1.50;;;3.30;99.90;;;;;;5059677;28;20491;-55
2021/04/12 04:33:15;;;;;;;1.77;1.67;;;3.30;99.90;;;;;;5058329;28;20818;-56
2021/04/12 04:36:20;;;;;;;1.83;1.73;;;3.30;99.90;;;;;;5058604;28;20171;-55
2021/04/12 04:39:19;;;;;;;1.90;1.80;;;3.30;99.90;;;;;;5061978;28;20463;-54
2021/04/12 04:41:57;;;;;;;2.00;1.80;;;3.30;99.90;;;;;;5056510;28;20507;-56
2021/04/12 04:44:47;;;;;;;1.80;1.70;;;3.40;99.90;;;;;;5056454;28;21169;-55
2021/04/12 04:48:02;;;;;;;1.93;1.83;;;3.40;99.90;;;;;;5060643;28;20420;-55
2021/04/12 04:50:56;;;;;;;2.60;2.40;;;3.30;99.80;;;;;;5046231;28;20469;-55
2021/04/12 04:53:43;;;;;;;2.13;2.03;;;3.30;99.90;;;;;;5055567;28;20444;-58
2021/04/12 04:56:24;;;;;;;1.90;1.80;;;3.20;99.90;;;;;;5051577;28;20501;-57
2021/04/12 04:59:07;;;;;;;2.20;2.00;;;3.20;99.60;;;;;;5062794;28;21089;-57
2021/04/12 05:02:05;;;;;;;1.87;1.77;;;3.20;99.30;;;;;;5064011;28;20439;-55
2021/04/12 05:04:49;;;;;;;2.90;2.70;;;3.20;99.70;;;;;;5063897;28;20443;-55
2021/04/12 05:07:27;;;;;;;2.27;2.07;;;3.20;99.60;;;;;;5057295;28;20435;-55
2021/04/12 05:10:14;;;;;;;2.37;2.13;;;3.20;99.50;;;;;;5062809;28;20491;-55
2021/04/12 05:13:17;;;;;;;1.90;1.80;;;3.10;99.40;;;;;;5065440;28;20436;-56
2021/04/12 05:16:17;;;;;;;2.90;2.70;;;3.10;99.40;;;;;;5061680;28;20462;-55
2021/04/12 05:19:18;;;;;;;2.50;2.30;;;3.10;99.40;;;;;;5060383;28;20465;-54
2021/04/12 05:22:18;;;;;;;2.93;2.73;;;3.10;99.70;;;;;;5038167;28;20983;-55
2021/04/12 05:24:59;;;;;;;2.40;2.20;;;3.10;99.90;;;;;;5058554;28;20420;-55
2021/04/12 05:28:00;;;;;;;2.60;2.40;;;3.10;99.90;;;;;;5049622;28;20473;-54
2021/04/12 05:30:33;;;;;;;4.67;2.60;;;3.10;99.80;;;;;;5054628;28;20464;-54
2021/04/12 05:33:01;;;;;;;3.07;2.77;;;3.10;99.80;;;;;;5066844;28;20416;-55
2021/04/12 05:35:52;;;;;;;2.57;2.40;;;3.10;99.90;;;;;;5057699;28;20420;-54
2021/04/12 05:38:27;;;;;;;3.10;2.80;;;3.10;99.90;;;;;;5055803;28;20532;-55
2021/04/12 05:41:18;;;;;;;2.87;2.13;;;3.10;99.90;;;;;;5049857;28;20522;-55
2021/04/12 05:44:04;;;;;;;2.50;2.30;;;3.10;99.90;;;;;;5063664;28;20424;-54
2021/04/12 05:46:51;;;;;;;3.70;2.90;;;3.10;99.90;;;;;;5062151;28;20494;-54
2021/04/12 05:49:48;;;;;;;2.57;2.37;;;3.10;99.80;;;;;;5067155;28;20460;-57
2021/04/12 05:52:32;;;;;;;4.73;2.40;;;3.10;99.80;;;;;;5079712;28;20528;-55
2021/04/12 05:55:07;;;;;;;2.50;2.30;;;3.10;99.90;;;;;;5085765;28;20444;-56
2021/04/12 05:57:55;;;;;;;2.30;2.10;;;3.10;99.90;;;;;;5067406;28;20474;-55
2021/04/12 06:00:33;;;;;;;2.90;2.70;;;3.10;99.90;;;;;;5061311;28;20484;-55
2021/04/12 06:03:08;;;;;;;3.23;2.93;;;3.10;99.80;;;;;;5066014;28;21003;-55
2021/04/12 06:06:11;;;;;;;3.40;3.10;;;3.10;99.90;;;;;;5065679;28;20413;-55
2021/04/12 06:09:04;;;;;;;4.03;3.20;;;3.00;99.90;;;;;;5059465;28;20517;-55
2021/04/12 06:11:52;;;;;;;3.00;2.70;;;3.00;99.90;;;;;;5066685;28;20436;-55
2021/04/12 06:14:37;;;;;;;3.00;2.70;;;3.00;99.90;;;;;;5058691;28;20438;-55
2021/04/12 06:17:18;;;;;;;2.93;2.67;;;3.00;99.90;;;;;;5058855;28;20464;-55
2021/04/12 06:20:21;;;;;;;2.70;2.50;;;3.00;99.90;;;;;;5065321;28;20531;-55
2021/04/12 06:23:36;;;;;;;4.53;3.37;;;3.00;99.90;;;;;;5059790;28;20427;-55
2021/04/12 06:26:38;;;;;;;2.57;2.37;;;3.00;99.90;;;;;;5054456;28;20861;-56
2021/04/12 06:29:42;;;;;;;2.50;2.30;;;3.00;99.90;;;;;;5065078;28;20469;-55
2021/04/12 06:32:23;;;;;;;2.10;2.00;;;3.00;99.90;;;;;;5063235;28;20442;-55
2021/04/12 06:35:14;;;;;;;1.90;1.80;;;3.00;99.90;;;;;;5061929;28;20505;-54
2021/04/12 06:37:59;;;;;;;2.30;1.93;;;3.10;99.90;;;;;;5062594;28;20460;-54
2021/04/12 06:40:46;;;;;;;1.80;1.70;;;3.00;99.90;;;;;;5063860;28;20978;-55
2021/04/12 06:44:06;;;;;;;2.23;1.90;;;3.00;99.90;;;;;;5052137;28;20419;-55
2021/04/12 06:46:59;;;;;;;8.73;3.37;;;3.00;99.90;;;;;;5064635;28;20767;-55
2021/04/12 06:49:44;;;;;;;3.23;2.30;;;3.00;99.90;;;;;;5058293;28;20462;-56
2021/04/12 06:52:15;;;;;;;1.77;1.67;;;3.10;99.90;;;;;;5060599;28;20446;-55
2021/04/12 06:55:21;;;;;;;6.47;3.70;;;3.10;99.90;;;;;;5059664;28;20447;-54
2021/04/12 06:58:05;;;;;;;5.43;2.77;;;3.10;99.80;;;;;;5056807;28;20452;-56
2021/04/12 07:00:52;;;;;;;1.83;1.73;;;3.10;99.70;;;;;;5061877;28;20456;-57
2021/04/12 07:03:37;;;;;;;3.60;2.20;;;3.10;99.90;;;;;;5074552;28;20425;-62
2021/04/12 07:06:37;;;;;;;5.43;3.97;;;3.20;99.50;;;;;;5060679;28;20432;-56
2021/04/12 07:09:51;;;;;;;2.37;2.17;;;3.10;99.80;;;;;;5064856;28;20442;-56
2021/04/12 07:12:38;;;;;;;2.63;2.43;;;3.20;99.90;;;;;;5059917;28;20467;-55
2021/04/12 07:15:41;;;;;;;2.43;2.23;;;3.20;99.70;;;;;;5062146;28;20559;-57
2021/04/12 07:18:41;;;;;;;3.43;2.67;;;3.20;99.90;;;;;;5056963;28;20468;-55
2021/04/12 07:21:31;;;;;;;5.20;3.90;;;3.20;99.90;;;;;;5063172;28;20433;-55
2021/04/12 07:24:34;;;;;;;8.53;6.17;;;3.20;99.90;;;;;;5061283;28;20494;-55
2021/04/12 07:27:34;;;;;;;2.60;2.40;;;3.30;99.70;;;;;;5056917;28;20465;-56
2021/04/12 07:30:12;;;;;;;6.30;3.80;;;3.30;99.60;;;;;;5062158;28;21029;-56
2021/04/12 07:33:13;;;;;;;3.03;2.83;;;3.30;99.50;;;;;;5061818;28;20435;-56
2021/04/12 07:35:57;;;;;;;3.10;2.80;;;3.30;99.40;;;;;;5064997;28;20929;-55
2021/04/12 07:38:54;;;;;;;6.90;4.20;;;3.30;99.40;;;;;;5059077;28;20992;-55
2021/04/12 07:41:53;;;;;;;6.57;4.90;;;3.30;99.20;;;;;;5060681;28;20499;-55
2021/04/12 07:44:57;;;;;;;6.30;4.43;;;3.30;99.60;;;;;;5061016;28;20436;-56
2021/04/12 07:47:47;;;;;;;8.00;5.13;;;3.30;99.10;;;;;;5061729;28;20439;-56
2021/04/12 07:50:13;;;;;;;4.23;3.80;;;3.30;99.20;;;;;;5062883;28;20491;-55
2021/04/12 07:53:16;;;;;;;10.73;5.90;;;3.40;98.80;;;;;;5059337;28;20467;-56
2021/04/12 07:56:15;;;;;;;5.00;4.10;;;3.50;98.70;;;;;;5060650;28;20292;-55
2021/04/12 07:59:19;;;;;;;5.50;4.17;;;3.50;99.50;;;;;;5063478;28;20523;-56
2021/04/12 08:02:36;;;;;;;5.50;4.77;;;3.60;98.80;;;;;;5062847;28;20428;-56
2021/04/12 08:05:20;;;;;;;5.03;3.87;;;3.70;98.60;;;;;;5043279;28;20441;-56
2021/04/12 08:08:23;;;;;;;7.00;5.33;;;3.80;98.40;;;;;;5065804;28;20514;-56
2021/04/12 08:11:17;;;;;;;6.53;5.00;;;3.80;97.40;;;;;;5065778;28;20466;-54
2021/04/12 08:14:31;;;;;;;5.70;4.90;;;3.80;97.20;;;;;;5062368;28;20432;-56
2021/04/12 08:17:35;;;;;;;6.90;4.93;;;3.90;98.00;;;;;;5064323;28;20455;-56
2021/04/12 08:20:25;;;;;;;8.83;5.10;;;4.00;96.70;;;;;;5064123;28;20476;-56
2021/04/12 08:23:28;;;;;;;7.70;5.77;;;4.00;97.60;;;;;;5064556;28;20825;-56
2021/04/12 08:26:29;;;;;;;6.33;5.40;;;4.20;97.70;;;;;;5072606;28;20532;-56
2021/04/12 08:29:13;;;;;;;9.10;6.07;;;4.20;96.90;;;;;;5054822;28;20476;-56
2021/04/12 08:32:13;;;;;;;7.07;5.37;;;4.20;95.90;;;;;;5064393;28;20468;-57
2021/04/12 08:35:00;;;;;;;8.20;5.50;;;4.30;96.50;;;;;;5063868;28;20507;-57
2021/04/12 08:37:57;;;;;;;8.17;5.30;;;4.30;96.60;;;;;;5078522;28;20478;-56
2021/04/12 08:40:45;;;;;;;7.03;5.50;;;4.40;96.10;;;;;;5079058;28;20462;-56
2021/04/12 08:43:26;;;;;;;6.20;5.07;;;4.40;95.90;;;;;;5081737;28;20433;-57
2021/04/12 08:45:54;;;;;;;6.90;5.30;;;4.30;95.30;;;;;;5083715;28;20457;-57
2021/04/12 08:48:20;;;;;;;8.37;5.70;;;4.30;95.20;;;;;;5078351;28;20430;-57
2021/04/12 08:51:01;;;;;;;7.70;5.40;;;4.20;95.50;;;;;;5083482;28;20494;-59
2021/04/12 08:53:41;;;;;;;6.63;4.93;;;4.20;95.80;;;;;;5077047;28;20182;-56
2021/04/12 08:56:29;;;;;;;6.57;5.03;;;4.10;94.10;;;;;;5083156;28;20420;-58
2021/04/12 08:59:41;;;;;;;7.30;5.13;;;4.00;94.90;;;;;;5078995;28;20894;-56
2021/04/12 09:02:26;;;;;;;6.90;5.20;;;3.90;95.30;;;;;;5057029;28;20439;-56
2021/04/12 09:05:30;;;;;;;6.63;5.40;;;4.00;95.80;;;;;;5075599;28;20436;-56
2021/04/12 09:08:24;;;;;;;6.00;4.97;;;4.10;96.20;;;;;;5078096;28;20490;-56
2021/04/12 09:11:08;;;;;;;6.30;5.20;;;4.20;96.10;;;;;;5085010;28;20455;-56
2021/04/12 09:13:53;;;;;;;6.03;4.87;;;4.30;96.10;;;;;;5084802;28;20490;-56
2021/04/12 09:16:37;;;;;;;6.57;4.90;;;4.30;95.40;;;;;;5083955;28;20444;-56
2021/04/12 09:19:15;;;;;;;5.20;4.27;;;4.40;95.60;;;;;;5082265;28;20685;-55
2021/04/12 09:21:49;;;;;;;5.47;4.60;;;4.40;95.80;;;;;;5059813;28;20425;-56
2021/04/12 09:24:46;;;;;;;5.77;4.63;;;4.40;96.10;;;;;;5067334;28;20424;-55
2021/04/12 09:27:53;;;;;;;5.03;4.20;;;4.50;96.00;;;;;;5057328;28;20884;-55
2021/04/12 09:30:21;;;;;;;5.50;4.40;;;4.50;95.80;;;;;;5063717;28;20452;-57
2021/04/12 09:33:05;;;;;;;5.40;4.27;;;4.50;95.20;;;;;;5062653;28;20534;-55
2021/04/12 09:36:07;;;;;;;6.00;4.30;;;4.60;94.40;;;;;;5061863;28;20483;-55
2021/04/12 09:38:54;;;;;;;4.73;4.07;;;4.70;95.00;;;;;;5076491;28;20447;-55
2021/04/12 09:41:41;;;;;;;6.63;4.20;;;4.80;95.00;;;;;;5069752;28;20425;-55
2021/04/12 09:44:21;;;;;;;5.83;4.47;;;4.80;92.80;;;;;;5065459;28;20433;-57
2021/04/12 09:46:53;;;;;;;8.63;5.43;;;4.70;93.10;;;;;;5075875;28;21112;-56
2021/04/12 09:49:52;;;;;;;7.20;4.57;;;4.60;91.30;;;;;;5062607;28;20573;-56
2021/04/12 09:52:37;;;;;;;8.77;5.77;;;4.50;92.20;;;;;;5068220;28;21105;-57
2021/04/12 09:55:02;;;;;;;8.20;5.60;;;4.50;92.90;;;;;;5065173;28;20446;-56
2021/04/12 09:57:59;;;;;;;8.00;5.80;;;4.50;94.30;;;;;;5067656;28;21032;-56
2021/04/12 10:00:57;;;;;;;6.93;5.60;;;4.60;94.20;;;;;;5063274;28;20209;-57
2021/04/12 10:03:47;;;;;;;15.20;6.30;;;4.70;94.80;;;;;;5071310;28;20599;-57
2021/04/12 10:06:35;;;;;;;9.87;5.63;;;4.80;93.00;;;;;;5081227;28;20401;-56
2021/04/12 10:09:10;;;;;;;5.93;4.80;;;4.90;92.30;;;;;;5083672;28;20440;-57
2021/04/12 10:11:38;;;;;;;10.93;5.50;;;5.00;93.30;;;;;;5073997;28;20455;-56
2021/04/12 10:14:14;;;;;;;7.73;5.80;;;5.10;93.20;;;;;;5059696;28;21239;-56
2021/04/12 10:16:48;;;;;;;8.93;5.70;;;5.10;91.70;;;;;;5069248;28;20512;-54
2021/04/12 10:19:18;;;;;;;9.53;6.10;;;5.20;92.70;;;;;;5077518;28;20463;-54
2021/04/12 10:22:25;;;;;;;11.53;4.63;;;5.30;91.90;;;;;;5082538;28;20535;-55
2021/04/12 10:24:50;;;;;;;13.13;4.60;;;5.30;86.80;;;;;;5002624;28;20470;-55
2021/04/12 10:27:46;;;;;;;6.43;4.70;;;5.30;85.60;;;;;;5061084;28;20448;-55
2021/04/12 10:30:30;;;;;;;11.13;5.07;;;5.30;82.00;;;;;;5074198;28;20194;-54
2021/04/12 10:33:02;;;;;;;6.37;4.80;;;5.30;82.40;;;;;;5070213;28;21031;-54
2021/04/12 10:35:59;;;;;;;5.77;5.00;;;5.20;85.80;;;;;;5073563;28;20462;-55
2021/04/12 10:38:38;;;;;;;8.63;5.27;;;5.20;84.40;;;;;;5068715;28;20515;-54
2021/04/12 10:41:23;;;;;;;8.00;5.23;;;5.20;87.10;;;;;;5070195;28;20467;-54
2021/04/12 10:43:51;;;;;;;8.47;5.63;;;5.20;87.30;;;;;;5058819;28;20447;-54
2021/04/12 10:46:26;;;;;;;6.47;5.27;;;5.30;87.20;;;;;;5062701;28;20474;-54
2021/04/12 10:49:15;;;;;;;8.33;5.30;;;5.50;84.50;;;;;;5057475;28;20545;-54
2021/04/12 10:52:08;;;;;;;5.83;4.60;;;5.50;83.40;;;;;;5060395;28;20436;-56
2021/04/12 10:55:00;;;;;;;6.63;4.43;;;5.60;84.20;;;;;;5059106;28;21039;-56
2021/04/12 10:57:25;;;;;;;6.17;4.60;;;5.70;80.00;;;;;;5071015;28;20864;-56
2021/04/12 11:00:10;;;;;;;6.80;5.07;;;5.80;72.00;;;;;;5062149;28;20448;-56
2021/04/12 11:02:41;;;;;;;8.90;5.00;;;5.80;78.40;;;;;;5064619;28;20179;-56
2021/04/12 11:05:09;;;;;;;8.60;4.50;;;5.80;77.30;;;;;;5068326;28;20412;-56
2021/04/12 11:08:05;;;;;;;5.77;5.07;;;5.80;74.10;;;;;;5066257;28;21057;-56
2021/04/12 11:10:43;;;;;;;6.27;4.83;;;5.90;78.00;;;;;;5063943;28;20457;-57
2021/04/12 11:13:08;;;;;;;10.60;5.23;;;6.00;78.10;;;;;;5058393;28;20435;-57
2021/04/12 11:16:06;;;;;;;7.00;4.97;;;6.20;76.80;;;;;;5058095;28;20432;-56
2021/04/12 11:18:41;;;;;;;7.07;4.63;;;6.30;76.90;;;;;;5055618;28;20278;-55
2021/04/12 11:21:35;;;;;;;6.87;4.50;;;6.30;74.90;;;;;;5059966;28;21069;-56
2021/04/12 11:24:19;;;;;;;7.67;4.67;;;6.40;73.10;;;;;;5060122;28;20429;-55
2021/04/12 11:26:47;;;;;;;6.10;4.70;;;6.30;70.50;;;;;;5061276;28;20631;-55
2021/04/12 11:29:26;;;;;;;6.07;4.67;;;6.20;66.90;;;;;;5058885;28;20461;-56
2021/04/12 11:32:25;;;;;;;10.13;5.60;;;6.20;72.00;;;;;;5052265;22;20876;-55
2021/04/12 11:34:57;;;;;;;8.27;4.97;;;6.00;71.50;;;;;;5016006;28;20430;-62
2021/04/12 11:37:36;;;;;;;8.97;5.83;;;5.80;72.10;;;;;;5016685;28;20474;-57
2021/04/12 11:40:14;;;;;;;7.00;4.77;;;5.60;70.50;;;;;;5015884;28;20456;-56
2021/04/12 11:42:48;;;;;;;5.77;4.27;;;5.40;74.30;;;;;;5020485;28;20453;-55
2021/04/12 11:45:38;;;;;;;5.53;4.80;;;5.20;70.90;;;;;;5022102;28;21005;-55
2021/04/12 11:48:26;;;;;;;9.40;6.30;;;5.10;72.70;;;;;;5025238;28;20517;-56
2021/04/12 11:51:04;;;;;;;12.87;5.87;;;4.90;75.80;;;;;;5022659;28;20454;-57
2021/04/12 11:53:48;;;;;;;10.37;6.23;;;4.90;77.90;;;;;;5021492;28;20430;-57
2021/04/12 11:56:44;;;;;;;6.80;5.17;;;4.90;79.10;;;;;;5012658;28;20966;-55
2021/04/12 11:59:18;;;;;;;6.47;5.43;;;4.90;79.30;;;;;;5028575;28;20419;-55
2021/04/12 12:01:53;;;;;;;11.13;5.17;;;5.10;79.10;;;;;;5025829;28;20531;-54
2021/04/12 12:04:30;;;;;;;7.50;5.77;;;5.20;76.90;;;;;;5020064;28;20432;-57
2021/04/12 12:07:11;;;;;;;5.57;4.80;;;5.30;76.40;;;;;;5020985;28;20428;-53
2021/04/12 12:09:44;;;;;;;9.20;4.40;;;5.30;77.00;;;;;;5024775;28;20426;-53
2021/04/12 12:12:22;;;;;;;6.07;4.97;;;5.30;75.70;;;;;;5020618;28;20446;-55
2021/04/12 12:15:18;;;;;;;7.23;5.40;;;5.20;73.80;;;;;;5022941;28;20426;-55
2021/04/12 12:17:57;;;;;;;8.20;5.73;;;5.10;76.20;;;;;;5019802;28;20450;-53
2021/04/12 12:20:31;;;;;;;7.13;4.97;;;5.00;79.00;;;;;;5022276;28;20993;-55
2021/04/12 12:23:25;;;;;;;8.13;5.30;;;5.00;81.00;;;;;;5020490;28;20426;-54
2021/04/12 12:25:56;;;;;;;6.20;4.63;;;4.90;83.60;;;;;;5027179;28;20477;-56
2021/04/12 12:28:38;;;;;;;5.93;4.70;;;4.80;83.70;;;;;;5023107;28;20434;-55
2021/04/12 12:31:31;;;;;;;16.13;5.70;;;4.80;81.60;;;;;;5013925;28;20465;-57
2021/04/12 12:34:24;;;;;;;10.10;6.07;;;4.80;82.60;;;;;;5016535;28;20513;-56
2021/04/12 12:37:03;;;;;;;8.20;5.20;;;4.80;81.10;;;;;;5024009;28;20457;-56
2021/04/12 12:39:44;;;;;;;11.53;5.50;;;4.90;81.80;;;;;;5012655;28;20849;-54
2021/04/12 12:42:33;;;;;;;7.80;5.87;;;4.90;83.70;;;;;;5021360;28;20464;-56
2021/04/12 12:45:25;;;;;;;9.27;5.60;;;4.90;84.50;;;;;;5019044;28;20504;-57
2021/04/12 12:47:55;;;;;;;7.53;5.10;;;5.00;83.90;;;;;;5022724;28;20438;-55
2021/04/12 12:50:40;;;;;;;10.73;4.70;;;5.00;85.60;;;;;;5028418;28;20430;-54
2021/04/12 12:53:13;;;;;;;8.37;5.47;;;5.00;83.30;;;;;;5015741;28;20429;-53
2021/04/12 12:55:50;;;;;;;8.67;5.93;;;5.00;82.80;;;;;;5020758;28;20443;-53
2021/04/12 12:58:25;;;;;;;7.27;5.00;;;5.10;85.60;;;;;;5019579;28;20458;-55
2021/04/12 13:00:57;;;;;;;7.83;5.47;;;5.20;83.90;;;;;;5014765;28;20950;-55
2021/04/12 13:03:34;;;;;;;6.30;4.70;;;5.20;77.70;;;;;;5018054;28;20419;-53
2021/04/12 13:06:16;;;;;;;7.87;4.93;;;5.30;76.20;;;;;;5021556;28;20431;-55
2021/04/12 13:09:11;;;;;;;7.13;4.20;;;5.40;72.20;;;;;;5020076;28;20512;-54
2021/04/12 13:11:42;;;;;;;6.37;4.70;;;5.60;69.70;;;;;;5022365;28;20451;-53
2021/04/12 13:14:12;;;;;;;7.07;4.63;;;5.80;68.90;;;;;;5022724;28;20427;-55
2021/04/12 13:16:39;;;;;;;6.60;4.53;;;6.00;71.90;;;;;;5021164;28;20457;-55
2021/04/12 13:19:06;;;;;;;7.50;4.37;;;6.60;68.20;;;;;;5023003;28;20431;-57
2021/04/12 13:21:40;;;;;;;7.37;4.43;;;7.10;63.30;;;;;;5022481;28;20446;-53
2021/04/12 13:24:18;;;;;;;5.67;4.27;;;7.40;60.80;;;;;;5015046;28;21908;-54
2021/04/12 13:27:02;;;;;;;5.27;4.37;;;7.50;56.30;;;;;;5012905;28;20434;-55
2021/04/12 13:29:33;;;;;;;6.53;4.47;;;7.40;56.50;;;;;;5018511;28;20442;-55
2021/04/12 13:32:20;;;;;;;4.90;4.23;;;7.10;53.60;;;;;;5027724;28;20466;-57
2021/04/12 13:34:57;;;;;;;7.83;5.27;;;6.90;55.60;;;;;;5023535;28;20434;-53
2021/04/12 13:37:37;;;;;;;7.80;5.13;;;6.60;58.80;;;;;;5023956;28;20466;-55
2021/04/12 13:40:18;;;;;;;6.13;4.70;;;6.40;57.60;;;;;;5023892;28;20422;-53
2021/04/12 13:42:54;;;;;;;9.83;5.03;;;6.10;56.90;;;;;;5020059;28;21268;-53
2021/04/12 13:45:33;;;;;;;12.30;4.93;;;5.90;59.10;;;;;;5021452;28;20515;-55
2021/04/12 13:48:05;;;;;;;6.20;4.97;;;5.70;59.70;;;;;;5015388;28;20434;-54
2021/04/12 13:50:48;;;;;;;5.97;5.13;;;5.60;59.70;;;;;;5014102;28;20434;-54
2021/04/12 13:53:34;;;;;;;13.47;6.07;;;5.50;59.50;;;;;;5019855;28;20564;-57
2021/04/12 13:56:08;;;;;;;5.37;4.87;;;5.40;63.50;;;;;;5026507;28;20419;-54
2021/04/12 13:58:44;;;;;;;7.00;5.40;;;5.50;62.10;;;;;;5022107;28;20453;-55
2021/04/12 14:01:20;;;;;;;8.67;5.53;;;5.60;60.60;;;;;;5019311;28;20544;-56
2021/04/12 14:03:58;;;;;;;8.43;5.43;;;5.70;60.80;;;;;;5018262;28;20434;-56
2021/04/12 14:06:54;;;;;;;7.87;5.70;;;5.70;58.80;;;;;;5023222;28;20559;-56
2021/04/12 14:09:30;;;;;;;6.20;5.07;;;5.70;60.90;;;;;;4991811;28;20450;-56
2021/04/12 14:12:19;;;;;;;7.80;5.07;;;5.80;62.10;;;;;;5018247;28;20534;-54
2021/04/12 14:15:09;;;;;;;7.17;4.80;;;5.70;60.00;;;;;;5016281;28;20431;-58
2021/04/12 14:17:44;;;;;;;8.17;5.10;;;5.70;62.70;;;;;;5020399;28;20464;-57
2021/04/12 14:20:11;;;;;;;7.13;5.50;;;5.70;64.10;;;;;;5016935;28;20434;-58
2021/04/12 14:22:50;;;;;;;6.40;5.77;;;5.70;65.80;;;;;;5017759;28;20484;-57
2021/04/12 14:25:36;;;;;;;9.93;5.50;;;5.90;65.30;;;;;;5014341;28;20818;-55
2021/04/12 14:28:25;;;;;;;7.07;5.33;;;6.20;67.70;;;;;;5020051;28;20519;-57
2021/04/12 14:31:05;;;;;;;8.60;5.50;;;6.80;65.90;;;;;;5022233;28;20493;-57
2021/04/12 14:33:37;;;;;;;9.40;5.90;;;7.20;63.40;;;;;;5021655;28;20475;-56